Time;durP1;ratioP1;P1;durP2;ratioP2;P2;SDS_P1;SDS_P2;PMS_P1;PMS_P2;Temp;Humidity;BMP_temperature;BMP_pressure;BME280_temperature;BME280_humidity;BME280_pressure;Samples;Min_cycle;Max_cycle;Signal;HPM_P1;HPM_P2
2022/10/27 00:01:52;;;;;;;22.40;14.82;;;;;;;9.46;72.84;100899.13;30861004;28;113845;-63
2022/10/27 00:16:54;;;;;;;26.17;14.07;;;;;;;9.70;73.24;100907.59;30860137;28;97436;-64
2022/10/27 00:31:54;;;;;;;23.03;13.27;;;;;;;9.82;72.84;100915.22;30859696;28;97236;-63
2022/10/27 00:46:56;;;;;;;28.88;15.40;;;;;;;9.80;73.02;100919.88;30858803;28;96680;-63
2022/10/27 01:01:56;;;;;;;25.30;14.57;;;;;;;9.64;72.82;100919.66;30855243;28;97609;-65
2022/10/27 01:17:13;;;;;;;23.38;13.93;;;;;;;9.39;72.87;100932.63;30855260;28;96679;-63
2022/10/27 01:32:32;;;;;;;27.17;15.83;;;;;;;9.10;73.39;100944.16;30855237;28;97059;-63
2022/10/27 01:47:33;;;;;;;26.33;15.00;;;;;;;8.88;74.17;100947.09;30853770;28;96618;-63
2022/10/27 02:02:56;;;;;;;23.55;14.35;;;;;;;8.75;74.19;100952.72;30851526;28;99564;-63
2022/10/27 02:18:01;;;;;;;22.07;14.20;;;;;;;8.57;74.93;100960.50;30850803;28;96812;-64
2022/10/27 02:33:03;;;;;;;25.00;14.07;;;;;;;8.48;75.18;100978.13;30868655;28;96618;-65
2022/10/27 02:48:03;;;;;;;22.37;13.90;;;;;;;8.34;75.14;100973.16;30869626;28;96726;-64
2022/10/27 03:03:04;;;;;;;25.85;13.82;;;;;;;8.28;75.82;100977.19;30867950;28;96680;-63
2022/10/27 03:18:04;;;;;;;18.23;11.45;;;;;;;8.18;75.62;100992.28;30864524;28;96802;-64
2022/10/27 03:33:05;;;;;;;21.02;12.68;;;;;;;8.08;76.18;101009.00;30861776;28;96803;-63
2022/10/27 03:48:09;;;;;;;24.17;12.07;;;;;;;8.13;77.15;101006.78;30862591;28;96654;-64
2022/10/27 04:03:09;;;;;;;;;;;;;;;8.17;76.97;101017.13;30860022;28;96645;-63
2022/10/27 04:18:10;;;;;;;19.67;11.93;;;;;;;8.05;76.45;101034.94;30858051;28;96895;-63
2022/10/27 04:33:10;;;;;;;21.27;11.50;;;;;;;8.08;77.20;101024.91;30854482;28;116895;-63
2022/10/27 04:48:10;;;;;;;26.63;13.30;;;;;;;8.16;77.86;101042.84;30840518;28;100122;-64
2022/10/27 05:03:12;;;;;;;22.47;10.97;;;;;;;8.25;77.71;101036.72;30809904;28;98594;-66
2022/10/27 05:18:12;;;;;;;17.08;10.10;;;;;;;8.61;78.15;101053.06;30821508;28;97896;-65
2022/10/27 05:33:13;;;;;;;13.40;9.45;;;;;;;8.72;78.23;101080.47;30823910;28;98960;-62
2022/10/27 05:48:14;;;;;;;21.83;13.77;;;;;;;8.56;77.47;101092.47;30817886;28;98447;-61
2022/10/27 06:03:24;;;;;;;20.90;12.27;;;;;;;8.51;77.63;101100.00;30828654;28;97585;-66
2022/10/27 06:18:24;;;;;;;30.90;14.30;;;;;;;8.93;77.85;101126.41;30841119;28;98974;-64
2022/10/27 06:33:25;;;;;;;23.85;12.85;;;;;;;9.91;77.86;101136.22;30838918;28;96938;-61
2022/10/27 06:48:25;;;;;;;25.33;12.93;;;;;;;11.29;76.76;101158.66;30838470;28;96970;-64
2022/10/27 07:03:25;;;;;;;22.65;11.18;;;;;;;13.03;75.32;101169.56;30832454;28;113938;-62
2022/10/27 07:18:26;;;;;;;17.35;9.65;;;;;;;14.84;72.48;101184.75;30833442;28;97901;-63
2022/10/27 07:33:26;;;;;;;21.17;9.35;;;;;;;16.42;69.25;101199.59;30826914;28;97649;-63
2022/10/27 07:48:27;;;;;;;33.67;18.48;;;;;;;16.61;65.91;101213.50;30824538;28;97265;-64
2022/10/27 08:03:29;;;;;;;21.25;12.18;;;;;;;17.81;64.89;101233.00;30830400;28;98280;-65
2022/10/27 08:18:29;;;;;;;18.27;9.30;;;;;;;20.17;64.08;101239.41;30827469;28;97348;-63
2022/10/27 08:33:30;;;;;;;9.90;4.67;;;;;;;29.96;46.85;101254.91;30826205;28;105700;-66
2022/10/27 08:48:32;;;;;;;9.38;4.75;;;;;;;37.68;31.09;101268.50;30827187;28;107197;-67
2022/10/27 09:03:54;;;;;;;7.37;4.10;;;;;;;41.50;21.16;101275.31;30822205;28;97775;-63
2022/10/27 09:18:56;;;;;;;10.87;4.07;;;;;;;42.81;19.02;101257.91;30823557;28;97798;-64
2022/10/27 09:34:04;;;;;;;7.40;4.10;;;;;;;42.10;18.05;101258.56;30822247;28;97788;-65
2022/10/27 09:49:05;;;;;;;8.77;3.53;;;;;;;45.71;16.22;101245.44;30824193;28;97502;-67
2022/10/27 10:04:14;;;;;;;10.93;3.40;;;;;;;46.70;15.03;101252.31;30820179;28;98862;-65
2022/10/27 10:19:18;;;;;;;9.83;4.03;;;;;;;45.84;14.85;101257.19;30822227;28;98568;-64
2022/10/27 10:34:30;;;;;;;9.77;4.43;;;;;;;44.36;15.26;101244.91;30818648;28;98585;-65
2022/10/27 10:49:45;;;;;;;9.07;4.00;;;;;;;46.55;14.21;101248.56;30829797;28;98986;-66
2022/10/27 11:04:48;;;;;;;10.80;4.80;;;;;;;43.67;15.73;101248.50;30838439;28;97768;-63
2022/10/27 11:19:51;;;;;;;11.43;5.03;;;;;;;41.34;17.32;101242.53;30834925;28;97779;-64
2022/10/27 11:35:19;;;;;;;8.67;3.90;;;;;;;44.59;15.37;101238.41;30832590;28;98797;-65
2022/10/27 11:50:26;;;;;;;9.90;4.73;;;;;;;42.05;18.12;101228.88;30832076;28;97108;-65
2022/10/27 12:05:34;;;;;;;8.93;4.17;;;;;;;48.31;13.00;101227.66;30826957;28;96953;-64
2022/10/27 12:20:43;;;;;;;8.80;4.37;;;;;;;49.19;12.46;101218.50;30816647;28;99718;-65
2022/10/27 12:36:01;;;;;;;8.83;4.40;;;;;;;49.62;11.67;101211.78;30827727;28;97847;-65
2022/10/27 12:51:04;;;;;;;10.57;3.93;;;;;;;46.02;14.64;101195.47;30844528;28;96690;-65
2022/10/27 13:06:21;;;;;;;9.00;4.20;;;;;;;44.52;15.29;101199.78;30842005;28;97489;-66
2022/10/27 13:21:28;;;;;;;9.83;3.90;;;;;;;43.00;16.21;101204.69;30843901;28;97146;-66
2022/10/27 13:36:29;;;;;;;10.27;4.43;;;;;;;38.21;20.17;101198.88;30844602;28;97646;-66
2022/10/27 13:51:41;;;;;;;10.95;4.70;;;;;;;35.40;23.34;101184.50;30851179;28;96726;-66
2022/10/27 14:06:47;;;;;;;14.40;5.97;;;;;;;31.79;27.19;101185.94;30848686;28;97571;-66
2022/10/27 14:21:55;;;;;;;7.10;4.40;;;;;;;30.71;28.92;101170.91;30847966;28;97004;-66
2022/10/27 14:36:55;;;;;;;8.30;5.20;;;;;;;29.67;30.62;101185.97;30862990;28;97032;-67
2022/10/27 14:51:58;;;;;;;15.65;6.97;;;;;;;26.74;34.07;101176.69;30866472;28;97262;-67
2022/10/27 15:07:01;;;;;;;15.00;5.93;;;;;;;24.42;38.84;101186.25;30865587;28;97494;-68
2022/10/27 15:22:03;;;;;;;47.20;26.47;;;;;;;22.03;42.23;101181.94;30861746;28;97330;-67
2022/10/27 15:37:13;;;;;;;19.90;10.17;;;;;;;20.19;46.73;101184.03;30861204;28;97351;-69
2022/10/27 15:52:19;;;;;;;45.00;17.87;;;;;;;18.80;50.26;101185.41;30860407;28;96852;-68
2022/10/27 16:07:20;;;;;;;34.83;17.03;;;;;;;17.72;53.12;101181.09;30859060;28;97791;-71
2022/10/27 16:22:21;;;;;;;88.22;41.15;;;;;;;16.80;56.09;101185.22;30857469;28;96724;-65
2022/10/27 16:37:25;;;;;;;115.50;56.27;;;;;;;16.08;58.08;101174.06;30769542;28;97135;-66
2022/10/27 16:52:25;;;;;;;155.77;85.53;;;;;;;15.51;60.40;101164.59;30723342;28;97148;-65
2022/10/27 17:07:26;;;;;;;64.90;35.72;;;;;;;15.00;61.65;101171.28;30833418;28;97075;-66
2022/10/27 17:22:26;;;;;;;65.82;34.60;;;;;;;14.63;63.85;101174.63;30850965;28;116392;-67
2022/10/27 17:37:26;;;;;;;48.38;24.23;;;;;;;14.29;65.41;101175.69;30809572;28;97076;-67
2022/10/27 17:52:31;;;;;;;35.65;21.08;;;;;;;13.96;66.86;101175.72;30840249;28;113591;-68
2022/10/27 18:07:31;;;;;;;35.93;21.47;;;;;;;13.61;68.09;101178.53;30859547;28;97836;-67
2022/10/27 18:22:32;;;;;;;43.47;23.17;;;;;;;13.47;69.23;101177.38;30859042;28;101568;-67
2022/10/27 18:37:32;;;;;;;38.38;21.38;;;;;;;13.26;69.96;101169.78;30849986;28;97407;-66
2022/10/27 18:52:32;;;;;;;33.63;20.20;;;;;;;13.00;70.97;101180.59;30846388;28;111494;-70
2022/10/27 19:07:33;;;;;;;43.97;22.45;;;;;;;12.74;72.12;101189.50;30846182;28;97436;-66
2022/10/27 19:22:33;;;;;;;45.22;24.45;;;;;;;12.51;72.81;101182.03;30809972;28;1151982;-66
2022/10/27 19:37:34;;;;;;;39.65;22.92;;;;;;;12.32;73.89;101195.63;30848814;28;117052;-66
2022/10/27 19:52:34;;;;;;;39.63;23.77;;;;;;;12.14;75.08;101185.81;30851269;28;97816;-66
2022/10/27 20:07:34;;;;;;;37.25;23.70;;;;;;;11.91;75.55;101196.09;30861805;28;96667;-66
2022/10/27 20:22:35;;;;;;;41.55;23.95;;;;;;;11.70;75.74;101204.44;30856879;28;119920;-66
2022/10/27 20:37:39;;;;;;;37.75;23.80;;;;;;;11.57;76.82;101198.66;30857852;28;97050;-66
2022/10/27 20:52:40;;;;;;;43.73;25.47;;;;;;;11.37;77.04;101190.75;30856429;28;96759;-66
2022/10/27 21:07:40;;;;;;;36.63;23.70;;;;;;;11.17;76.48;101182.91;30855326;28;96777;-65
2022/10/27 21:22:40;;;;;;;39.03;25.02;;;;;;;10.84;77.52;101174.53;30855672;28;98960;-65
2022/10/27 21:37:41;;;;;;;43.08;27.35;;;;;;;10.65;77.83;101155.97;30853826;28;114028;-65
2022/10/27 21:52:41;;;;;;;48.85;29.95;;;;;;;10.48;78.22;101150.41;30853679;28;106720;-66
2022/10/27 22:07:41;;;;;;;42.50;25.00;;;;;;;10.31;78.60;101141.31;30852870;28;113192;-66
2022/10/27 22:22:42;;;;;;;43.88;24.08;;;;;;;10.16;78.56;101130.28;30850618;28;118138;-65
2022/10/27 22:37:42;;;;;;;41.75;22.58;;;;;;;10.13;79.27;101125.25;30852354;28;96926;-65
2022/10/27 22:52:42;;;;;;;40.65;23.83;;;;;;;10.06;79.77;101112.66;30870826;28;96708;-65
2022/10/27 23:07:43;;;;;;;35.80;23.52;;;;;;;9.89;79.59;101101.78;30868544;28;114114;-65
2022/10/27 23:22:43;;;;;;;36.45;21.67;;;;;;;9.72;80.12;101100.69;30867135;28;96743;-65
2022/10/27 23:37:44;;;;;;;36.33;20.63;;;;;;;9.64;80.60;101090.75;30865433;28;114956;-66
2022/10/27 23:52:44;;;;;;;34.22;21.33;;;;;;;9.53;80.96;101090.91;30863201;28;97226;-66
